Pine Grove, CA

11:14 AM PDT on August 30, 2014 (GMT -0700)
Mather | Change Station
CLOSE
Current Station
Airport
Location: Mather AFB,
Elevation: 95 ft
Nearby Weather Stations

Elev 95 ft 38.56 °N, 121.30 °W | Updated 29 minutes ago

Partly Cloudy
Partly Cloudy
82 °F
Feels Like 82 °F
N
6
Wind Variable Wind from SSW

Today
High -- | Low -- °F
--% Chance of Precip.
Yesterday
High -- | Low -- °F
Precip. -- in
6:30 AM 7:35 PM
Waxing Crescent, 23% visible
Pressure 29.87 in
Visibility 10.0 miles
Clouds Few 20000 ft
Dew Point 50 °F
Humidity 32%
Rainfall 0.00 in
Snow Depth Not available.
UV 6 out of 12
Pollen 9.20 out of 12
Ozone Good
Flu Activity Not available.
METAR KMHR 301745Z 20005KT 10SM FEW200 28/10 A2987

More Conditions Fewer Conditions

Pressure 29.87 in
Visibility 10.0 miles
Clouds Few 20000 ft
Dew Point 50 °F
Humidity 32%
Rainfall 0.00 in
Snow Depth Not available.
UV 6 out of 12
Pollen 9.20 out of 12
Ozone Good
Flu Activity Not available.
METAR KMHR 301745Z 20005KT 10SM FEW200 28/10 A2987

More Conditions Fewer Conditions

10-Day Weather Forecast

Almanac

Astronomy

Aug. 30, 2014 Rise Set
Actual Time 6:30 AM PDT 7:35 PM PDT
Civil Twilight 6:03 AM PDT 8:02 PM PDT
Nautical Twilight 5:30 AM PDT 8:34 PM PDT
Astronomical Twilight 4:56 AM PDT 9:08 PM PDT
Moon 11:18 AM PDT 10:17 PM PDT
Length of Visible Light 13h 59m
Length of Day
13h 04m
Tomorrow will be 2m 23s shorter.
Waxing Crescent, 23% of the Moon is Illuminated
Today
Waxing Crescent
Sep 2
First Quarter
Sep 8
Full
Sep 15
Last Quarter
Sep 24
New

Today's Extremes

State Highs State Lows

Community

WunderPhotos

Upload Photos

1,748,583 photos uploaded!

WunderBlogs® & News

Nearby

Air Quality

  Air Quality AQ Index Pollutant
Yesterday Moderate
OZONE
Current Good
OZONE
Saturday Moderate
OZONE
Sunday Moderate
OZONE
Monday Moderate
OZONE
Tuesday Moderate
OZONE
Wednesday Moderate
OZONE
Thursday Moderate
OZONE

Snow Depth

Station Depth Elevation
Forestdale Creek 0 in 8029 ft
Hagan's Meadow 1 in 8000 ft
Rubicon #2 0 in 7500 ft
Leavitt Lake 0 in 9400 ft
Monitor Pass 0 in 8350 ft

Earthquake Activity

City Distance Mag. Time & Date
Ridgemark, California 124 miles 3.4 4:32 PM PDT
2014-08-29
Ridgemark, California 124 miles 3.0 2:44 PM PDT
2014-08-29
Orange Cove, California 145 miles 2.5 7:48 AM PDT
2014-08-29
Minimum magnitude displayed is 2.5.

Coastal Water Temperatures

Place Temperature
No Stations Reporting

Nearby Weather Stations